sensor_id;sensor_type;location;lat;lon;timestamp;temperature;humidity
12604;DHT22;6367;52.508;13.284;2023-02-28T00:00:27;6.70;89.10
12604;DHT22;6367;52.508;13.284;2023-02-28T00:02:53;6.80;89.10
12604;DHT22;6367;52.508;13.284;2023-02-28T00:05:21;6.80;88.80
12604;DHT22;6367;52.508;13.284;2023-02-28T00:07:47;6.80;88.70
12604;DHT22;6367;52.508;13.284;2023-02-28T00:10:17;6.60;88.90
12604;DHT22;6367;52.508;13.284;2023-02-28T00:12:49;6.90;89.30
12604;DHT22;6367;52.508;13.284;2023-02-28T00:15:16;6.60;89.20
12604;DHT22;6367;52.508;13.284;2023-02-28T00:17:42;6.60;88.70
12604;DHT22;6367;52.508;13.284;2023-02-28T00:20:09;6.60;89.00
12604;DHT22;6367;52.508;13.284;2023-02-28T00:22:39;6.60;88.70
12604;DHT22;6367;52.508;13.284;2023-02-28T00:25:05;6.50;88.90
12604;DHT22;6367;52.508;13.284;2023-02-28T00:27:32;6.40;89.20
12604;DHT22;6367;52.508;13.284;2023-02-28T00:29:58;6.90;89.90
12604;DHT22;6367;52.508;13.284;2023-02-28T00:32:26;6.50;89.10
12604;DHT22;6367;52.508;13.284;2023-02-28T00:34:52;6.50;90.10
12604;DHT22;6367;52.508;13.284;2023-02-28T00:37:18;6.40;89.60
12604;DHT22;6367;52.508;13.284;2023-02-28T00:39:44;6.30;89.40
12604;DHT22;6367;52.508;13.284;2023-02-28T00:42:09;6.30;90.30
12604;DHT22;6367;52.508;13.284;2023-02-28T00:44:35;6.30;90.00
12604;DHT22;6367;52.508;13.284;2023-02-28T00:47:01;6.30;89.30
12604;DHT22;6367;52.508;13.284;2023-02-28T00:49:27;6.40;89.80
12604;DHT22;6367;52.508;13.284;2023-02-28T00:51:53;6.80;89.60
12604;DHT22;6367;52.508;13.284;2023-02-28T00:54:20;6.50;89.50
12604;DHT22;6367;52.508;13.284;2023-02-28T00:56:46;6.50;89.40
12604;DHT22;6367;52.508;13.284;2023-02-28T00:59:16;6.40;88.90
12604;DHT22;6367;52.508;13.284;2023-02-28T01:01:43;6.50;88.70
12604;DHT22;6367;52.508;13.284;2023-02-28T01:04:08;6.60;88.80
12604;DHT22;6367;52.508;13.284;2023-02-28T01:06:34;6.40;88.70
12604;DHT22;6367;52.508;13.284;2023-02-28T01:09:01;6.40;89.10
12604;DHT22;6367;52.508;13.284;2023-02-28T01:11:27;6.40;88.70
12604;DHT22;6367;52.508;13.284;2023-02-28T01:13:53;6.30;88.90
12604;DHT22;6367;52.508;13.284;2023-02-28T01:16:18;6.70;89.60
12604;DHT22;6367;52.508;13.284;2023-02-28T01:18:44;6.30;89.40
12604;DHT22;6367;52.508;13.284;2023-02-28T01:21:14;6.30;89.10
12604;DHT22;6367;52.508;13.284;2023-02-28T01:23:40;6.40;89.10
12604;DHT22;6367;52.508;13.284;2023-02-28T01:26:15;6.50;88.30
12604;DHT22;6367;52.508;13.284;2023-02-28T01:28:41;6.50;87.60
12604;DHT22;6367;52.508;13.284;2023-02-28T01:31:08;6.60;87.60
12604;DHT22;6367;52.508;13.284;2023-02-28T01:33:34;6.40;87.60
12604;DHT22;6367;52.508;13.284;2023-02-28T01:36:01;6.50;87.80
12604;DHT22;6367;52.508;13.284;2023-02-28T01:38:28;6.50;87.50
12604;DHT22;6367;52.508;13.284;2023-02-28T01:40:53;6.50;87.50
12604;DHT22;6367;52.508;13.284;2023-02-28T01:43:26;6.40;87.30
12604;DHT22;6367;52.508;13.284;2023-02-28T01:45:53;6.50;87.00
12604;DHT22;6367;52.508;13.284;2023-02-28T01:48:22;6.50;87.20
12604;DHT22;6367;52.508;13.284;2023-02-28T01:50:51;6.60;87.40
12604;DHT22;6367;52.508;13.284;2023-02-28T01:53:21;6.60;87.50
12604;DHT22;6367;52.508;13.284;2023-02-28T01:55:51;6.00;86.80
12604;DHT22;6367;52.508;13.284;2023-02-28T01:58:18;6.60;87.60
12604;DHT22;6367;52.508;13.284;2023-02-28T02:00:44;6.50;87.80
12604;DHT22;6367;52.508;13.284;2023-02-28T02:03:13;6.60;87.60
12604;DHT22;6367;52.508;13.284;2023-02-28T02:05:40;6.60;87.70
12604;DHT22;6367;52.508;13.284;2023-02-28T02:08:11;6.90;88.50
12604;DHT22;6367;52.508;13.284;2023-02-28T02:10:49;6.50;88.00
12604;DHT22;6367;52.508;13.284;2023-02-28T02:13:45;6.60;87.80
12604;DHT22;6367;52.508;13.284;2023-02-28T02:35:25;6.40;87.70
12604;DHT22;6367;52.508;13.284;2023-02-28T02:38:08;6.30;87.60
12604;DHT22;6367;52.508;13.284;2023-02-28T02:41:26;6.30;88.00
12604;DHT22;6367;52.508;13.284;2023-02-28T02:43:33;6.30;88.30
12604;DHT22;6367;52.508;13.284;2023-02-28T02:46:14;6.50;88.40
12604;DHT22;6367;52.508;13.284;2023-02-28T02:48:42;6.50;88.10
12604;DHT22;6367;52.508;13.284;2023-02-28T02:51:20;6.50;88.30
12604;DHT22;6367;52.508;13.284;2023-02-28T02:53:52;6.50;88.40
12604;DHT22;6367;52.508;13.284;2023-02-28T02:56:22;6.40;88.30
12604;DHT22;6367;52.508;13.284;2023-02-28T02:58:51;6.40;88.40
12604;DHT22;6367;52.508;13.284;2023-02-28T03:01:21;6.30;88.50
12604;DHT22;6367;52.508;13.284;2023-02-28T03:04:18;6.40;88.70
12604;DHT22;6367;52.508;13.284;2023-02-28T03:06:41;6.40;89.40
12604;DHT22;6367;52.508;13.284;2023-02-28T03:09:07;6.20;88.90
12604;DHT22;6367;52.508;13.284;2023-02-28T03:11:35;6.30;88.90
12604;DHT22;6367;52.508;13.284;2023-02-28T03:20:10;6.20;88.20
12604;DHT22;6367;52.508;13.284;2023-02-28T03:31:00;6.20;88.50
12604;DHT22;6367;52.508;13.284;2023-02-28T03:33:44;6.20;88.50
12604;DHT22;6367;52.508;13.284;2023-02-28T03:36:15;6.10;88.60
12604;DHT22;6367;52.508;13.284;2023-02-28T03:38:47;6.20;88.80
12604;DHT22;6367;52.508;13.284;2023-02-28T03:41:25;6.20;88.90
12604;DHT22;6367;52.508;13.284;2023-02-28T03:44:04;6.10;89.20
12604;DHT22;6367;52.508;13.284;2023-02-28T03:46:35;6.00;89.40
12604;DHT22;6367;52.508;13.284;2023-02-28T03:49:14;6.00;89.40
12604;DHT22;6367;52.508;13.284;2023-02-28T03:51:42;6.40;90.10
12604;DHT22;6367;52.508;13.284;2023-02-28T03:54:33;6.20;89.70
12604;DHT22;6367;52.508;13.284;2023-02-28T03:59:57;6.10;90.00
12604;DHT22;6367;52.508;13.284;2023-02-28T04:02:24;6.10;90.00
12604;DHT22;6367;52.508;13.284;2023-02-28T04:04:50;6.00;90.00
12604;DHT22;6367;52.508;13.284;2023-02-28T04:07:17;6.00;90.20
12604;DHT22;6367;52.508;13.284;2023-02-28T04:09:43;5.90;90.10
12604;DHT22;6367;52.508;13.284;2023-02-28T04:12:09;5.90;90.20
12604;DHT22;6367;52.508;13.284;2023-02-28T04:14:34;6.00;90.10
12604;DHT22;6367;52.508;13.284;2023-02-28T04:17:00;6.00;90.20
12604;DHT22;6367;52.508;13.284;2023-02-28T04:19:26;6.30;90.40
12604;DHT22;6367;52.508;13.284;2023-02-28T04:21:52;6.00;90.20
12604;DHT22;6367;52.508;13.284;2023-02-28T04:24:23;6.00;90.00
12604;DHT22;6367;52.508;13.284;2023-02-28T04:26:51;6.60;90.40
12604;DHT22;6367;52.508;13.284;2023-02-28T04:29:24;6.00;90.20
12604;DHT22;6367;52.508;13.284;2023-02-28T04:31:50;6.00;90.10
12604;DHT22;6367;52.508;13.284;2023-02-28T04:34:18;6.00;90.10
12604;DHT22;6367;52.508;13.284;2023-02-28T04:36:44;6.30;90.40
12604;DHT22;6367;52.508;13.284;2023-02-28T04:39:11;6.20;90.20
12604;DHT22;6367;52.508;13.284;2023-02-28T04:41:37;5.70;90.20
12604;DHT22;6367;52.508;13.284;2023-02-28T04:44:03;5.70;90.30
12604;DHT22;6367;52.508;13.284;2023-02-28T04:46:29;5.80;90.30
12604;DHT22;6367;52.508;13.284;2023-02-28T04:48:55;5.90;90.10
12604;DHT22;6367;52.508;13.284;2023-02-28T04:51:21;5.80;90.20
12604;DHT22;6367;52.508;13.284;2023-02-28T04:53:47;5.80;90.30
12604;DHT22;6367;52.508;13.284;2023-02-28T04:56:15;5.80;90.30
12604;DHT22;6367;52.508;13.284;2023-02-28T04:58:41;5.80;90.30
12604;DHT22;6367;52.508;13.284;2023-02-28T05:01:24;5.80;90.30
12604;DHT22;6367;52.508;13.284;2023-02-28T05:03:51;5.80;90.30
12604;DHT22;6367;52.508;13.284;2023-02-28T05:06:18;5.80;90.20
12604;DHT22;6367;52.508;13.284;2023-02-28T05:08:45;5.90;90.30
12604;DHT22;6367;52.508;13.284;2023-02-28T05:11:17;5.90;90.30
12604;DHT22;6367;52.508;13.284;2023-02-28T05:13:43;5.80;90.30
12604;DHT22;6367;52.508;13.284;2023-02-28T05:16:08;5.70;90.30
12604;DHT22;6367;52.508;13.284;2023-02-28T05:18:34;6.30;90.50
12604;DHT22;6367;52.508;13.284;2023-02-28T05:21:00;5.70;90.20
12604;DHT22;6367;52.508;13.284;2023-02-28T05:23:29;5.70;90.20
12604;DHT22;6367;52.508;13.284;2023-02-28T05:25:55;5.80;90.50
12604;DHT22;6367;52.508;13.284;2023-02-28T05:28:21;5.80;90.30
12604;DHT22;6367;52.508;13.284;2023-02-28T05:30:47;5.60;90.30
12604;DHT22;6367;52.508;13.284;2023-02-28T05:33:13;5.80;90.40
12604;DHT22;6367;52.508;13.284;2023-02-28T05:35:39;6.00;90.60
12604;DHT22;6367;52.508;13.284;2023-02-28T05:38:06;5.60;90.60
12604;DHT22;6367;52.508;13.284;2023-02-28T05:40:31;5.80;90.70
12604;DHT22;6367;52.508;13.284;2023-02-28T05:42:57;5.50;90.60
12604;DHT22;6367;52.508;13.284;2023-02-28T05:45:23;5.50;90.50
12604;DHT22;6367;52.508;13.284;2023-02-28T05:47:48;5.70;90.50
12604;DHT22;6367;52.508;13.284;2023-02-28T05:50:14;5.60;90.40
12604;DHT22;6367;52.508;13.284;2023-02-28T05:52:40;5.50;90.50
12604;DHT22;6367;52.508;13.284;2023-02-28T05:55:06;5.60;90.40
12604;DHT22;6367;52.508;13.284;2023-02-28T05:57:32;5.60;90.40
12604;DHT22;6367;52.508;13.284;2023-02-28T05:59:58;5.60;90.40
12604;DHT22;6367;52.508;13.284;2023-02-28T06:02:23;5.70;90.40
12604;DHT22;6367;52.508;13.284;2023-02-28T06:04:49;5.70;90.30
12604;DHT22;6367;52.508;13.284;2023-02-28T06:07:14;5.60;90.20
12604;DHT22;6367;52.508;13.284;2023-02-28T06:09:40;5.60;90.30
12604;DHT22;6367;52.508;13.284;2023-02-28T06:12:06;5.70;90.50
12604;DHT22;6367;52.508;13.284;2023-02-28T06:14:34;5.70;90.70
12604;DHT22;6367;52.508;13.284;2023-02-28T06:17:01;6.00;90.90
12604;DHT22;6367;52.508;13.284;2023-02-28T06:19:27;5.60;90.90
12604;DHT22;6367;52.508;13.284;2023-02-28T06:21:53;5.70;90.80
12604;DHT22;6367;52.508;13.284;2023-02-28T06:24:24;5.80;90.70
12604;DHT22;6367;52.508;13.284;2023-02-28T06:26:50;5.80;91.00
12604;DHT22;6367;52.508;13.284;2023-02-28T06:29:16;5.80;91.00
12604;DHT22;6367;52.508;13.284;2023-02-28T06:31:46;5.70;90.90
12604;DHT22;6367;52.508;13.284;2023-02-28T06:34:13;5.90;91.00
12604;DHT22;6367;52.508;13.284;2023-02-28T06:36:39;5.70;90.90
12604;DHT22;6367;52.508;13.284;2023-02-28T06:39:06;6.10;91.10
12604;DHT22;6367;52.508;13.284;2023-02-28T06:41:32;5.90;91.00
12604;DHT22;6367;52.508;13.284;2023-02-28T06:44:14;5.90;91.30
12604;DHT22;6367;52.508;13.284;2023-02-28T06:46:41;5.70;91.40
12604;DHT22;6367;52.508;13.284;2023-02-28T06:49:07;5.80;91.50
12604;DHT22;6367;52.508;13.284;2023-02-28T06:51:39;5.80;91.60
12604;DHT22;6367;52.508;13.284;2023-02-28T06:54:05;5.70;91.50
12604;DHT22;6367;52.508;13.284;2023-02-28T06:56:35;5.70;91.60
12604;DHT22;6367;52.508;13.284;2023-02-28T06:59:01;5.70;91.50
12604;DHT22;6367;52.508;13.284;2023-02-28T07:01:26;5.80;91.40
12604;DHT22;6367;52.508;13.284;2023-02-28T07:03:53;5.80;91.20
12604;DHT22;6367;52.508;13.284;2023-02-28T07:06:23;5.90;91.10
12604;DHT22;6367;52.508;13.284;2023-02-28T07:08:52;5.90;91.10
12604;DHT22;6367;52.508;13.284;2023-02-28T07:11:19;5.90;90.90
12604;DHT22;6367;52.508;13.284;2023-02-28T07:13:46;6.00;90.70
12604;DHT22;6367;52.508;13.284;2023-02-28T07:16:19;5.90;90.50
12604;DHT22;6367;52.508;13.284;2023-02-28T07:18:45;6.00;90.10
12604;DHT22;6367;52.508;13.284;2023-02-28T07:21:11;5.90;89.60
12604;DHT22;6367;52.508;13.284;2023-02-28T07:23:37;6.00;89.60
12604;DHT22;6367;52.508;13.284;2023-02-28T07:26:07;6.10;88.60
12604;DHT22;6367;52.508;13.284;2023-02-28T07:28:33;6.00;87.10
12604;DHT22;6367;52.508;13.284;2023-02-28T07:31:08;6.10;87.30
12604;DHT22;6367;52.508;13.284;2023-02-28T07:33:35;6.20;87.30
12604;DHT22;6367;52.508;13.284;2023-02-28T07:36:06;6.40;86.80
12604;DHT22;6367;52.508;13.284;2023-02-28T07:38:35;6.50;87.50
12604;DHT22;6367;52.508;13.284;2023-02-28T07:41:03;6.90;86.20
12604;DHT22;6367;52.508;13.284;2023-02-28T07:43:33;6.90;85.80
12604;DHT22;6367;52.508;13.284;2023-02-28T07:46:10;7.00;86.50
12604;DHT22;6367;52.508;13.284;2023-02-28T07:48:37;7.10;86.90
12604;DHT22;6367;52.508;13.284;2023-02-28T07:51:03;7.10;86.50
12604;DHT22;6367;52.508;13.284;2023-02-28T07:53:29;7.10;86.40
12604;DHT22;6367;52.508;13.284;2023-02-28T07:56:01;7.10;86.70
12604;DHT22;6367;52.508;13.284;2023-02-28T07:58:28;7.00;87.30
12604;DHT22;6367;52.508;13.284;2023-02-28T08:00:54;7.20;86.50
12604;DHT22;6367;52.508;13.284;2023-02-28T08:03:21;7.20;84.50
12604;DHT22;6367;52.508;13.284;2023-02-28T08:05:48;7.30;79.90
12604;DHT22;6367;52.508;13.284;2023-02-28T08:08:17;7.30;77.40
12604;DHT22;6367;52.508;13.284;2023-02-28T08:10:46;7.40;77.30
12604;DHT22;6367;52.508;13.284;2023-02-28T08:13:12;7.50;78.10
12604;DHT22;6367;52.508;13.284;2023-02-28T08:15:39;7.40;78.60
12604;DHT22;6367;52.508;13.284;2023-02-28T08:18:05;7.60;77.30
12604;DHT22;6367;52.508;13.284;2023-02-28T08:20:31;7.60;74.60
12604;DHT22;6367;52.508;13.284;2023-02-28T08:22:56;7.60;70.30
12604;DHT22;6367;52.508;13.284;2023-02-28T08:25:25;7.70;70.30
12604;DHT22;6367;52.508;13.284;2023-02-28T08:27:51;8.10;69.10
12604;DHT22;6367;52.508;13.284;2023-02-28T08:30:17;7.80;68.20
12604;DHT22;6367;52.508;13.284;2023-02-28T08:32:43;7.80;68.00
12604;DHT22;6367;52.508;13.284;2023-02-28T08:35:09;7.90;67.50
12604;DHT22;6367;52.508;13.284;2023-02-28T08:37:38;8.00;67.60
12604;DHT22;6367;52.508;13.284;2023-02-28T08:40:04;8.00;67.50
12604;DHT22;6367;52.508;13.284;2023-02-28T08:42:30;8.10;67.20
12604;DHT22;6367;52.508;13.284;2023-02-28T08:44:57;8.90;66.80
12604;DHT22;6367;52.508;13.284;2023-02-28T08:47:22;8.30;63.80
12604;DHT22;6367;52.508;13.284;2023-02-28T08:49:48;8.30;64.70
12604;DHT22;6367;52.508;13.284;2023-02-28T08:52:17;8.40;63.70
12604;DHT22;6367;52.508;13.284;2023-02-28T08:54:42;8.50;63.60
12604;DHT22;6367;52.508;13.284;2023-02-28T08:57:08;8.40;63.10
12604;DHT22;6367;52.508;13.284;2023-02-28T08:59:35;8.50;63.10
12604;DHT22;6367;52.508;13.284;2023-02-28T09:02:00;8.40;63.10
12604;DHT22;6367;52.508;13.284;2023-02-28T09:04:26;8.40;62.70
12604;DHT22;6367;52.508;13.284;2023-02-28T09:06:52;8.40;63.00
12604;DHT22;6367;52.508;13.284;2023-02-28T09:09:17;8.50;63.40
12604;DHT22;6367;52.508;13.284;2023-02-28T09:11:46;8.70;63.70
12604;DHT22;6367;52.508;13.284;2023-02-28T09:14:11;8.70;62.70
12604;DHT22;6367;52.508;13.284;2023-02-28T09:16:39;8.70;62.40
12604;DHT22;6367;52.508;13.284;2023-02-28T09:19:05;8.90;62.00
12604;DHT22;6367;52.508;13.284;2023-02-28T09:21:31;8.80;63.10
12604;DHT22;6367;52.508;13.284;2023-02-28T09:23:56;8.90;63.50
12604;DHT22;6367;52.508;13.284;2023-02-28T09:26:26;9.00;62.00
12604;DHT22;6367;52.508;13.284;2023-02-28T09:28:53;9.00;63.00
12604;DHT22;6367;52.508;13.284;2023-02-28T09:31:24;9.20;63.60
12604;DHT22;6367;52.508;13.284;2023-02-28T09:33:51;9.40;61.70
12604;DHT22;6367;52.508;13.284;2023-02-28T09:36:17;9.50;62.10
12604;DHT22;6367;52.508;13.284;2023-02-28T09:38:44;9.60;61.70
12604;DHT22;6367;52.508;13.284;2023-02-28T09:41:16;9.70;61.30
12604;DHT22;6367;52.508;13.284;2023-02-28T09:43:49;10.30;60.20
12604;DHT22;6367;52.508;13.284;2023-02-28T09:46:30;9.90;59.80
12604;DHT22;6367;52.508;13.284;2023-02-28T09:48:59;9.90;60.40
12604;DHT22;6367;52.508;13.284;2023-02-28T09:54:21;9.90;60.60
12604;DHT22;6367;52.508;13.284;2023-02-28T10:05:33;10.20;60.10
12604;DHT22;6367;52.508;13.284;2023-02-28T10:08:05;10.20;58.80
12604;DHT22;6367;52.508;13.284;2023-02-28T10:10:48;10.30;59.60
12604;DHT22;6367;52.508;13.284;2023-02-28T10:16:09;10.40;59.40
12604;DHT22;6367;52.508;13.284;2023-02-28T10:19:15;10.40;59.60
12604;DHT22;6367;52.508;13.284;2023-02-28T10:21:47;10.50;57.40
12604;DHT22;6367;52.508;13.284;2023-02-28T10:24:30;10.30;58.20
12604;DHT22;6367;52.508;13.284;2023-02-28T10:27:12;10.30;58.10
12604;DHT22;6367;52.508;13.284;2023-02-28T10:29:44;10.60;59.40
12604;DHT22;6367;52.508;13.284;2023-02-28T10:32:14;10.40;58.50
12604;DHT22;6367;52.508;13.284;2023-02-28T10:34:41;10.40;58.40
12604;DHT22;6367;52.508;13.284;2023-02-28T10:37:07;10.40;59.10
12604;DHT22;6367;52.508;13.284;2023-02-28T10:39:39;10.50;59.60
12604;DHT22;6367;52.508;13.284;2023-02-28T10:44:47;10.70;58.20
12604;DHT22;6367;52.508;13.284;2023-02-28T10:47:17;10.60;58.00
12604;DHT22;6367;52.508;13.284;2023-02-28T10:49:49;10.60;57.80
12604;DHT22;6367;52.508;13.284;2023-02-28T10:52:39;10.50;57.60
12604;DHT22;6367;52.508;13.284;2023-02-28T10:55:24;10.30;58.00
12604;DHT22;6367;52.508;13.284;2023-02-28T10:57:58;10.10;58.80
12604;DHT22;6367;52.508;13.284;2023-02-28T11:00:25;10.20;59.00
12604;DHT22;6367;52.508;13.284;2023-02-28T11:02:51;10.30;58.50
12604;DHT22;6367;52.508;13.284;2023-02-28T11:05:29;10.20;58.70
12604;DHT22;6367;52.508;13.284;2023-02-28T11:08:17;10.30;59.50
12604;DHT22;6367;52.508;13.284;2023-02-28T11:10:58;10.60;59.50
12604;DHT22;6367;52.508;13.284;2023-02-28T11:13:33;10.80;59.70
12604;DHT22;6367;52.508;13.284;2023-02-28T11:16:02;10.90;60.40
12604;DHT22;6367;52.508;13.284;2023-02-28T11:21:08;11.00;60.00
12604;DHT22;6367;52.508;13.284;2023-02-28T11:23:36;11.20;60.00
12604;DHT22;6367;52.508;13.284;2023-02-28T11:26:06;11.40;58.40
12604;DHT22;6367;52.508;13.284;2023-02-28T11:28:41;11.40;59.60
12604;DHT22;6367;52.508;13.284;2023-02-28T11:33:50;11.50;57.90
12604;DHT22;6367;52.508;13.284;2023-02-28T11:36:30;11.50;58.30
12604;DHT22;6367;52.508;13.284;2023-02-28T11:39:00;11.60;58.20
12604;DHT22;6367;52.508;13.284;2023-02-28T11:47:17;12.00;57.80
12604;DHT22;6367;52.508;13.284;2023-02-28T12:06:28;11.90;55.40
12604;DHT22;6367;52.508;13.284;2023-02-28T12:17:12;11.50;56.70
12604;DHT22;6367;52.508;13.284;2023-02-28T12:22:28;12.10;55.60
12604;DHT22;6367;52.508;13.284;2023-02-28T12:27:56;12.00;56.50
12604;DHT22;6367;52.508;13.284;2023-02-28T12:30:28;12.00;55.80
12604;DHT22;6367;52.508;13.284;2023-02-28T12:33:14;11.80;56.10
12604;DHT22;6367;52.508;13.284;2023-02-28T12:35:58;11.80;56.30
12604;DHT22;6367;52.508;13.284;2023-02-28T12:38:43;11.80;56.10
12604;DHT22;6367;52.508;13.284;2023-02-28T12:41:19;11.70;56.60
12604;DHT22;6367;52.508;13.284;2023-02-28T12:44:00;11.70;57.10
12604;DHT22;6367;52.508;13.284;2023-02-28T12:46:35;11.70;56.50
12604;DHT22;6367;52.508;13.284;2023-02-28T12:49:56;11.50;56.00
12604;DHT22;6367;52.508;13.284;2023-02-28T12:52:04;11.20;56.30
12604;DHT22;6367;52.508;13.284;2023-02-28T12:54:44;11.20;56.10
12604;DHT22;6367;52.508;13.284;2023-02-28T12:57:17;10.90;55.80
12604;DHT22;6367;52.508;13.284;2023-02-28T12:59:50;10.90;56.80
12604;DHT22;6367;52.508;13.284;2023-02-28T13:08:03;10.90;57.40
12604;DHT22;6367;52.508;13.284;2023-02-28T13:10:46;10.80;56.90
12604;DHT22;6367;52.508;13.284;2023-02-28T13:13:23;10.60;57.20
12604;DHT22;6367;52.508;13.284;2023-02-28T13:18:39;10.10;57.00
12604;DHT22;6367;52.508;13.284;2023-02-28T13:21:08;10.40;57.00
12604;DHT22;6367;52.508;13.284;2023-02-28T13:34:27;10.50;58.70
12604;DHT22;6367;52.508;13.284;2023-02-28T13:39:53;10.50;58.60
12604;DHT22;6367;52.508;13.284;2023-02-28T13:47:55;10.60;58.50
12604;DHT22;6367;52.508;13.284;2023-02-28T13:56:07;10.50;56.40
12604;DHT22;6367;52.508;13.284;2023-02-28T14:06:28;10.50;58.10
12604;DHT22;6367;52.508;13.284;2023-02-28T14:09:02;10.60;57.60
12604;DHT22;6367;52.508;13.284;2023-02-28T14:11:38;10.60;57.50
12604;DHT22;6367;52.508;13.284;2023-02-28T14:14:04;10.30;57.10
12604;DHT22;6367;52.508;13.284;2023-02-28T14:16:44;10.10;57.10
12604;DHT22;6367;52.508;13.284;2023-02-28T14:19:13;9.90;58.40
12604;DHT22;6367;52.508;13.284;2023-02-28T14:27:28;9.90;58.40
12604;DHT22;6367;52.508;13.284;2023-02-28T14:33:22;9.80;59.00
12604;DHT22;6367;52.508;13.284;2023-02-28T14:38:53;10.00;58.30
12604;DHT22;6367;52.508;13.284;2023-02-28T14:41:22;10.10;58.90
12604;DHT22;6367;52.508;13.284;2023-02-28T14:43:59;10.10;59.60
12604;DHT22;6367;52.508;13.284;2023-02-28T14:46:47;10.10;59.70
12604;DHT22;6367;52.508;13.284;2023-02-28T14:51:43;10.00;59.90
12604;DHT22;6367;52.508;13.284;2023-02-28T14:54:16;10.00;60.10
12604;DHT22;6367;52.508;13.284;2023-02-28T14:56:42;10.00;60.00
12604;DHT22;6367;52.508;13.284;2023-02-28T14:59:25;10.00;60.00
12604;DHT22;6367;52.508;13.284;2023-02-28T15:01:51;10.00;59.90
12604;DHT22;6367;52.508;13.284;2023-02-28T15:04:26;10.00;60.00
12604;DHT22;6367;52.508;13.284;2023-02-28T15:07:14;9.90;61.20
12604;DHT22;6367;52.508;13.284;2023-02-28T15:09:40;9.90;60.90
12604;DHT22;6367;52.508;13.284;2023-02-28T15:12:06;9.80;60.70
12604;DHT22;6367;52.508;13.284;2023-02-28T15:14:34;9.80;60.60
12604;DHT22;6367;52.508;13.284;2023-02-28T15:17:08;9.70;60.00
12604;DHT22;6367;52.508;13.284;2023-02-28T15:19:40;9.60;60.60
12604;DHT22;6367;52.508;13.284;2023-02-28T15:22:19;9.50;61.20
12604;DHT22;6367;52.508;13.284;2023-02-28T15:24:49;9.60;61.10
12604;DHT22;6367;52.508;13.284;2023-02-28T15:27:25;9.40;61.20
12604;DHT22;6367;52.508;13.284;2023-02-28T15:29:56;9.40;61.70
12604;DHT22;6367;52.508;13.284;2023-02-28T15:32:31;9.40;61.60
12604;DHT22;6367;52.508;13.284;2023-02-28T15:34:59;9.30;61.30
12604;DHT22;6367;52.508;13.284;2023-02-28T15:37:46;9.30;61.50
12604;DHT22;6367;52.508;13.284;2023-02-28T15:40:28;9.30;61.00
12604;DHT22;6367;52.508;13.284;2023-02-28T15:45:41;9.30;62.00
12604;DHT22;6367;52.508;13.284;2023-02-28T15:48:17;9.30;62.20
12604;DHT22;6367;52.508;13.284;2023-02-28T15:50:44;9.30;62.30
12604;DHT22;6367;52.508;13.284;2023-02-28T15:53:17;9.30;62.50
12604;DHT22;6367;52.508;13.284;2023-02-28T15:55:44;9.30;62.40
12604;DHT22;6367;52.508;13.284;2023-02-28T15:58:12;9.20;62.90
12604;DHT22;6367;52.508;13.284;2023-02-28T16:00:38;9.20;62.30
12604;DHT22;6367;52.508;13.284;2023-02-28T16:03:24;9.20;61.60
12604;DHT22;6367;52.508;13.284;2023-02-28T16:08:54;9.20;61.80
12604;DHT22;6367;52.508;13.284;2023-02-28T16:11:21;9.20;61.90
12604;DHT22;6367;52.508;13.284;2023-02-28T16:13:48;9.00;62.50
12604;DHT22;6367;52.508;13.284;2023-02-28T16:16:17;8.90;62.30
12604;DHT22;6367;52.508;13.284;2023-02-28T16:18:43;8.80;62.90
12604;DHT22;6367;52.508;13.284;2023-02-28T16:21:08;8.80;63.30
12604;DHT22;6367;52.508;13.284;2023-02-28T16:23:34;8.70;62.60
12604;DHT22;6367;52.508;13.284;2023-02-28T16:26:00;8.70;63.30
12604;DHT22;6367;52.508;13.284;2023-02-28T16:28:33;8.80;63.40
12604;DHT22;6367;52.508;13.284;2023-02-28T16:31:02;8.60;63.70
12604;DHT22;6367;52.508;13.284;2023-02-28T16:33:29;8.60;63.90
12604;DHT22;6367;52.508;13.284;2023-02-28T16:35:55;8.50;63.90
12604;DHT22;6367;52.508;13.284;2023-02-28T16:38:21;8.40;64.40
12604;DHT22;6367;52.508;13.284;2023-02-28T16:40:49;9.10;64.90
12604;DHT22;6367;52.508;13.284;2023-02-28T16:43:18;8.50;64.50
12604;DHT22;6367;52.508;13.284;2023-02-28T16:45:45;8.60;64.70
12604;DHT22;6367;52.508;13.284;2023-02-28T16:48:13;8.60;64.40
12604;DHT22;6367;52.508;13.284;2023-02-28T16:50:39;9.00;65.10
12604;DHT22;6367;52.508;13.284;2023-02-28T16:53:05;8.50;65.00
12604;DHT22;6367;52.508;13.284;2023-02-28T16:55:31;8.50;65.30
12604;DHT22;6367;52.508;13.284;2023-02-28T16:57:58;8.50;64.70
12604;DHT22;6367;52.508;13.284;2023-02-28T17:00:26;8.50;64.60
12604;DHT22;6367;52.508;13.284;2023-02-28T17:02:53;8.40;65.10
12604;DHT22;6367;52.508;13.284;2023-02-28T17:05:19;8.30;65.40
12604;DHT22;6367;52.508;13.284;2023-02-28T17:07:46;8.40;65.50
12604;DHT22;6367;52.508;13.284;2023-02-28T17:10:18;8.40;66.00
12604;DHT22;6367;52.508;13.284;2023-02-28T17:12:44;8.30;66.30
12604;DHT22;6367;52.508;13.284;2023-02-28T17:15:12;8.40;66.60
12604;DHT22;6367;52.508;13.284;2023-02-28T17:17:38;8.50;66.40
12604;DHT22;6367;52.508;13.284;2023-02-28T17:20:05;8.50;66.80
12604;DHT22;6367;52.508;13.284;2023-02-28T17:22:31;8.50;66.80
12604;DHT22;6367;52.508;13.284;2023-02-28T17:24:57;8.40;66.90
12604;DHT22;6367;52.508;13.284;2023-02-28T17:27:24;8.40;66.40
12604;DHT22;6367;52.508;13.284;2023-02-28T17:29:50;8.50;66.70
12604;DHT22;6367;52.508;13.284;2023-02-28T17:32:16;8.50;66.00
12604;DHT22;6367;52.508;13.284;2023-02-28T17:34:42;8.50;66.70
12604;DHT22;6367;52.508;13.284;2023-02-28T17:37:09;8.50;66.60
12604;DHT22;6367;52.508;13.284;2023-02-28T17:39:35;8.60;65.80
12604;DHT22;6367;52.508;13.284;2023-02-28T17:42:01;8.40;65.90
12604;DHT22;6367;52.508;13.284;2023-02-28T17:44:26;8.30;66.30
12604;DHT22;6367;52.508;13.284;2023-02-28T17:46:54;8.40;66.70
12604;DHT22;6367;52.508;13.284;2023-02-28T17:49:20;8.30;66.90
12604;DHT22;6367;52.508;13.284;2023-02-28T17:51:46;8.40;67.10
12604;DHT22;6367;52.508;13.284;2023-02-28T17:54:13;8.40;67.20
12604;DHT22;6367;52.508;13.284;2023-02-28T17:56:39;8.30;66.80
12604;DHT22;6367;52.508;13.284;2023-02-28T17:59:05;8.30;66.80
12604;DHT22;6367;52.508;13.284;2023-02-28T18:01:31;8.40;66.90
12604;DHT22;6367;52.508;13.284;2023-02-28T18:03:57;8.40;66.80
12604;DHT22;6367;52.508;13.284;2023-02-28T18:06:30;8.50;66.70
12604;DHT22;6367;52.508;13.284;2023-02-28T18:08:58;8.40;66.50
12604;DHT22;6367;52.508;13.284;2023-02-28T18:11:24;8.40;66.50
12604;DHT22;6367;52.508;13.284;2023-02-28T18:13:52;8.30;66.40
12604;DHT22;6367;52.508;13.284;2023-02-28T18:16:19;8.80;66.90
12604;DHT22;6367;52.508;13.284;2023-02-28T18:18:46;8.20;66.60
12604;DHT22;6367;52.508;13.284;2023-02-28T18:21:14;7.70;65.90
12604;DHT22;6367;52.508;13.284;2023-02-28T18:23:40;8.10;66.40
12604;DHT22;6367;52.508;13.284;2023-02-28T18:26:13;8.20;66.20
12604;DHT22;6367;52.508;13.284;2023-02-28T18:28:39;8.10;66.20
12604;DHT22;6367;52.508;13.284;2023-02-28T18:31:10;8.10;66.30
12604;DHT22;6367;52.508;13.284;2023-02-28T18:33:37;8.10;66.40